RJSO(METAR)
10/20 06:00
METAR RJSO 192100Z 30004KT 9999 FEW020 SCT035 BKN230 10/09 Q1022 RMK
2CU020 3CU035 A3018=
戻る
トップページへ戻る
IMOC Co,.Ltd.